sensor_id;sensor_type;location;lat;lon;timestamp;pressure;altitude;pressure_sealevel;temperature;humidity
10462;BME280;5278;42.656;23.374;2022-08-23T00:01:16;94090.84;;;24.73;70.09
10462;BME280;5278;42.656;23.374;2022-08-23T00:03:45;94100.84;;;24.42;70.36
10462;BME280;5278;42.656;23.374;2022-08-23T00:06:13;94103.25;;;24.33;71.67
10462;BME280;5278;42.656;23.374;2022-08-23T00:08:40;94108.09;;;24.11;72.16
10462;BME280;5278;42.656;23.374;2022-08-23T00:11:26;94112.69;;;23.90;72.85
10462;BME280;5278;42.656;23.374;2022-08-23T00:13:54;94111.41;;;23.68;74.75
10462;BME280;5278;42.656;23.374;2022-08-23T00:16:21;94112.22;;;23.58;76.01
10462;BME280;5278;42.656;23.374;2022-08-23T00:18:48;94104.25;;;23.63;76.57
10462;BME280;5278;42.656;23.374;2022-08-23T00:21:16;94090.97;;;23.68;76.26
10462;BME280;5278;42.656;23.374;2022-08-23T00:23:43;94104.78;;;23.65;76.55
10462;BME280;5278;42.656;23.374;2022-08-23T00:26:10;94104.81;;;23.50;77.34
10462;BME280;5278;42.656;23.374;2022-08-23T00:28:37;94097.06;;;23.38;78.34
10462;BME280;5278;42.656;23.374;2022-08-23T00:31:05;94098.13;;;23.32;79.26
10462;BME280;5278;42.656;23.374;2022-08-23T00:33:32;94101.84;;;23.36;79.23
10462;BME280;5278;42.656;23.374;2022-08-23T00:35:59;94100.00;;;23.32;79.68
10462;BME280;5278;42.656;23.374;2022-08-23T00:38:28;94097.88;;;23.34;79.93
10462;BME280;5278;42.656;23.374;2022-08-23T00:40:54;94092.84;;;23.37;80.08
10462;BME280;5278;42.656;23.374;2022-08-23T00:43:26;94090.72;;;23.29;79.88
10462;BME280;5278;42.656;23.374;2022-08-23T00:46:17;94088.09;;;23.49;79.60
10462;BME280;5278;42.656;23.374;2022-08-23T00:49:08;94080.38;;;23.38;80.01
10462;BME280;5278;42.656;23.374;2022-08-23T00:51:41;94094.44;;;23.48;80.03
10462;BME280;5278;42.656;23.374;2022-08-23T00:54:11;94090.72;;;23.44;80.52
10462;BME280;5278;42.656;23.374;2022-08-23T00:56:40;94095.50;;;23.47;80.23
10462;BME280;5278;42.656;23.374;2022-08-23T00:59:08;94100.00;;;23.37;80.79
10462;BME280;5278;42.656;23.374;2022-08-23T01:01:35;94106.38;;;23.61;79.95
10462;BME280;5278;42.656;23.374;2022-08-23T01:04:03;94100.28;;;23.66;79.26
10462;BME280;5278;42.656;23.374;2022-08-23T01:06:32;94096.78;;;23.80;78.58
10462;BME280;5278;42.656;23.374;2022-08-23T01:09:05;94103.66;;;23.76;78.69
10462;BME280;5278;42.656;23.374;2022-08-23T01:11:36;94104.19;;;23.93;78.72
10462;BME280;5278;42.656;23.374;2022-08-23T01:14:07;94116.59;;;24.08;78.06
10462;BME280;5278;42.656;23.374;2022-08-23T01:16:41;94126.44;;;24.02;77.84
10462;BME280;5278;42.656;23.374;2022-08-23T01:19:17;94119.59;;;23.76;78.57
10462;BME280;5278;42.656;23.374;2022-08-23T01:21:51;94116.97;;;23.31;81.36
10462;BME280;5278;42.656;23.374;2022-08-23T01:24:21;94109.28;;;23.39;81.45
10462;BME280;5278;42.656;23.374;2022-08-23T01:26:49;94108.50;;;23.29;81.05
10462;BME280;5278;42.656;23.374;2022-08-23T01:29:16;94118.53;;;23.11;81.93
10462;BME280;5278;42.656;23.374;2022-08-23T01:31:43;94108.72;;;23.02;81.81
10462;BME280;5278;42.656;23.374;2022-08-23T01:34:12;94112.97;;;22.98;82.19
10462;BME280;5278;42.656;23.374;2022-08-23T01:36:42;94105.00;;;22.72;82.37
10462;BME280;5278;42.656;23.374;2022-08-23T01:39:10;94117.31;;;22.37;84.00
10462;BME280;5278;42.656;23.374;2022-08-23T01:41:39;94104.56;;;22.28;85.63
10462;BME280;5278;42.656;23.374;2022-08-23T01:44:06;94107.19;;;22.23;86.09
10462;BME280;5278;42.656;23.374;2022-08-23T01:46:34;94119.88;;;22.11;86.11
10462;BME280;5278;42.656;23.374;2022-08-23T01:49:05;94126.44;;;22.04;87.67
10462;BME280;5278;42.656;23.374;2022-08-23T01:51:32;94108.78;;;22.19;87.11
10462;BME280;5278;42.656;23.374;2022-08-23T01:53:59;94113.34;;;22.39;86.17
10462;BME280;5278;42.656;23.374;2022-08-23T01:56:26;94103.56;;;22.40;85.99
10462;BME280;5278;42.656;23.374;2022-08-23T01:58:54;94106.50;;;22.53;85.02
10462;BME280;5278;42.656;23.374;2022-08-23T02:01:21;94115.28;;;22.69;85.09
10462;BME280;5278;42.656;23.374;2022-08-23T02:03:48;94077.69;;;22.72;83.71
10462;BME280;5278;42.656;23.374;2022-08-23T02:06:15;94104.78;;;23.04;83.18
10462;BME280;5278;42.656;23.374;2022-08-23T02:08:42;94100.28;;;23.25;81.70
10462;BME280;5278;42.656;23.374;2022-08-23T02:11:30;94106.88;;;23.38;81.50
10462;BME280;5278;42.656;23.374;2022-08-23T02:14:01;94109.56;;;23.48;80.81
10462;BME280;5278;42.656;23.374;2022-08-23T02:16:30;94109.03;;;23.61;79.90
10462;BME280;5278;42.656;23.374;2022-08-23T02:18:58;94110.63;;;23.52;79.47
10462;BME280;5278;42.656;23.374;2022-08-23T02:21:26;94106.66;;;23.59;79.09
10462;BME280;5278;42.656;23.374;2022-08-23T02:23:55;94107.94;;;23.67;79.44
10462;BME280;5278;42.656;23.374;2022-08-23T02:26:23;94099.97;;;23.77;78.81
10462;BME280;5278;42.656;23.374;2022-08-23T02:28:50;94099.13;;;23.87;77.56
10462;BME280;5278;42.656;23.374;2022-08-23T02:31:18;94098.59;;;23.95;75.98
10462;BME280;5278;42.656;23.374;2022-08-23T02:33:45;94075.59;;;23.65;77.27
10462;BME280;5278;42.656;23.374;2022-08-23T02:36:13;94098.94;;;23.53;77.63
10462;BME280;5278;42.656;23.374;2022-08-23T02:38:40;94100.28;;;23.50;77.98
10462;BME280;5278;42.656;23.374;2022-08-23T02:41:07;94115.41;;;23.55;77.43
10462;BME280;5278;42.656;23.374;2022-08-23T02:43:34;94114.34;;;23.56;77.52
10462;BME280;5278;42.656;23.374;2022-08-23T02:46:02;94112.19;;;23.68;76.01
10462;BME280;5278;42.656;23.374;2022-08-23T02:48:32;94106.63;;;23.70;75.11
10462;BME280;5278;42.656;23.374;2022-08-23T02:50:59;94098.38;;;23.71;76.47
10462;BME280;5278;42.656;23.374;2022-08-23T02:53:26;94108.97;;;23.86;74.99
10462;BME280;5278;42.656;23.374;2022-08-23T02:55:53;94124.13;;;23.81;75.56
10462;BME280;5278;42.656;23.374;2022-08-23T02:58:20;94094.66;;;23.77;73.72
10462;BME280;5278;42.656;23.374;2022-08-23T03:00:48;94100.50;;;23.74;73.89
10462;BME280;5278;42.656;23.374;2022-08-23T03:03:15;94102.41;;;23.53;74.89
10462;BME280;5278;42.656;23.374;2022-08-23T03:05:44;94103.72;;;23.31;76.37
10462;BME280;5278;42.656;23.374;2022-08-23T03:08:11;94101.59;;;23.12;76.80
10462;BME280;5278;42.656;23.374;2022-08-23T03:10:41;94096.56;;;22.96;76.59
10462;BME280;5278;42.656;23.374;2022-08-23T03:13:08;94097.84;;;22.83;77.26
10462;BME280;5278;42.656;23.374;2022-08-23T03:15:35;94091.75;;;22.88;77.60
10462;BME280;5278;42.656;23.374;2022-08-23T03:18:02;94011.94;;;22.39;76.32
10462;BME280;5278;42.656;23.374;2022-08-23T03:20:29;94091.75;;;22.83;76.13
10462;BME280;5278;42.656;23.374;2022-08-23T03:22:58;94089.91;;;22.73;77.79
10462;BME280;5278;42.656;23.374;2022-08-23T03:25:25;94095.13;;;22.58;76.25
10462;BME280;5278;42.656;23.374;2022-08-23T03:27:52;94095.91;;;22.48;77.70
10462;BME280;5278;42.656;23.374;2022-08-23T03:30:19;94105.69;;;22.48;77.47
10462;BME280;5278;42.656;23.374;2022-08-23T03:32:46;94086.88;;;22.44;78.23
10462;BME280;5278;42.656;23.374;2022-08-23T03:35:13;94092.44;;;22.38;77.89
10462;BME280;5278;42.656;23.374;2022-08-23T03:37:39;94096.69;;;22.44;78.27
10462;BME280;5278;42.656;23.374;2022-08-23T03:40:09;94108.88;;;22.50;79.07
10462;BME280;5278;42.656;23.374;2022-08-23T03:42:36;94103.63;;;22.65;77.99
10462;BME280;5278;42.656;23.374;2022-08-23T03:45:03;94103.91;;;22.68;76.52
10462;BME280;5278;42.656;23.374;2022-08-23T03:47:30;94122.22;;;22.75;76.90
10462;BME280;5278;42.656;23.374;2022-08-23T03:49:58;94075.53;;;22.54;76.35
10462;BME280;5278;42.656;23.374;2022-08-23T03:52:24;94119.53;;;22.65;78.83
10462;BME280;5278;42.656;23.374;2022-08-23T03:54:51;94130.59;;;22.52;79.88
10462;BME280;5278;42.656;23.374;2022-08-23T03:57:20;94131.16;;;22.59;80.60
10462;BME280;5278;42.656;23.374;2022-08-23T03:59:46;94142.25;;;22.46;80.66
10462;BME280;5278;42.656;23.374;2022-08-23T04:02:15;94113.56;;;22.27;80.73
10462;BME280;5278;42.656;23.374;2022-08-23T04:04:42;94126.53;;;22.24;81.36
10462;BME280;5278;42.656;23.374;2022-08-23T04:07:09;94151.75;;;22.42;81.31
10462;BME280;5278;42.656;23.374;2022-08-23T04:09:36;94147.63;;;22.66;80.13
10462;BME280;5278;42.656;23.374;2022-08-23T04:12:03;94150.50;;;22.64;80.49
10462;BME280;5278;42.656;23.374;2022-08-23T04:14:32;94146.88;;;22.76;79.87
10462;BME280;5278;42.656;23.374;2022-08-23T04:17:00;94152.63;;;22.62;79.00
10462;BME280;5278;42.656;23.374;2022-08-23T04:19:27;94144.91;;;22.51;80.19
10462;BME280;5278;42.656;23.374;2022-08-23T04:21:54;94160.78;;;22.46;80.09
10462;BME280;5278;42.656;23.374;2022-08-23T04:24:20;94154.09;;;22.33;80.33
10462;BME280;5278;42.656;23.374;2022-08-23T04:26:47;94148.91;;;22.58;80.47
10462;BME280;5278;42.656;23.374;2022-08-23T04:29:15;94154.47;;;22.67;79.50
10462;BME280;5278;42.656;23.374;2022-08-23T04:31:44;94129.34;;;22.69;78.12
10462;BME280;5278;42.656;23.374;2022-08-23T04:34:11;94147.94;;;22.85;79.31
10462;BME280;5278;42.656;23.374;2022-08-23T04:36:40;94145.56;;;22.93;78.66
10462;BME280;5278;42.656;23.374;2022-08-23T04:39:07;94154.06;;;23.00;77.79
10462;BME280;5278;42.656;23.374;2022-08-23T04:41:35;94159.66;;;23.09;78.37
10462;BME280;5278;42.656;23.374;2022-08-23T04:44:19;94164.75;;;23.51;75.93
10462;BME280;5278;42.656;23.374;2022-08-23T04:46:48;94162.84;;;23.77;74.58
10462;BME280;5278;42.656;23.374;2022-08-23T04:49:15;94152.50;;;23.90;73.67
10462;BME280;5278;42.656;23.374;2022-08-23T04:51:43;94167.28;;;24.27;72.13
10462;BME280;5278;42.656;23.374;2022-08-23T04:54:09;94174.97;;;24.38;70.96
10462;BME280;5278;42.656;23.374;2022-08-23T04:56:37;94177.53;;;24.64;70.12
10462;BME280;5278;42.656;23.374;2022-08-23T04:59:04;94172.38;;;24.88;68.89
10462;BME280;5278;42.656;23.374;2022-08-23T05:01:32;94185.84;;;25.06;67.55
10462;BME280;5278;42.656;23.374;2022-08-23T05:04:01;94183.66;;;25.18;66.75
10462;BME280;5278;42.656;23.374;2022-08-23T05:06:28;94190.00;;;25.22;67.08
10462;BME280;5278;42.656;23.374;2022-08-23T05:08:56;94188.63;;;25.30;65.43
10462;BME280;5278;42.656;23.374;2022-08-23T05:11:23;94185.09;;;25.40;64.92
10462;BME280;5278;42.656;23.374;2022-08-23T05:13:50;94189.25;;;25.51;64.12
10462;BME280;5278;42.656;23.374;2022-08-23T05:16:17;94176.28;;;25.44;64.53
10462;BME280;5278;42.656;23.374;2022-08-23T05:18:44;94198.97;;;25.70;64.59
10462;BME280;5278;42.656;23.374;2022-08-23T05:21:15;94206.44;;;25.74;62.78
10462;BME280;5278;42.656;23.374;2022-08-23T05:23:42;94198.44;;;25.74;64.57
10462;BME280;5278;42.656;23.374;2022-08-23T05:26:11;94203.38;;;25.90;64.14
10462;BME280;5278;42.656;23.374;2022-08-23T05:28:40;94204.47;;;26.13;63.21
10462;BME280;5278;42.656;23.374;2022-08-23T05:31:10;94201.00;;;26.41;61.78
10462;BME280;5278;42.656;23.374;2022-08-23T05:33:39;94195.38;;;26.67;60.64
10462;BME280;5278;42.656;23.374;2022-08-23T05:36:07;94193.84;;;26.84;59.64
10462;BME280;5278;42.656;23.374;2022-08-23T05:38:37;94189.84;;;27.06;58.69
10462;BME280;5278;42.656;23.374;2022-08-23T05:41:04;94200.03;;;27.41;57.56
10462;BME280;5278;42.656;23.374;2022-08-23T05:43:32;94188.66;;;27.87;56.00
10462;BME280;5278;42.656;23.374;2022-08-23T05:46:00;94186.50;;;28.35;54.62
10462;BME280;5278;42.656;23.374;2022-08-23T05:48:28;94190.47;;;28.51;53.42
10462;BME280;5278;42.656;23.374;2022-08-23T05:50:56;94193.84;;;28.56;53.08
10462;BME280;5278;42.656;23.374;2022-08-23T05:53:23;94197.22;;;28.62;53.56
10462;BME280;5278;42.656;23.374;2022-08-23T05:55:51;94205.06;;;28.86;52.73
10462;BME280;5278;42.656;23.374;2022-08-23T05:58:18;94217.63;;;29.13;52.03
10462;BME280;5278;42.656;23.374;2022-08-23T06:00:45;94211.63;;;29.43;51.12
10462;BME280;5278;42.656;23.374;2022-08-23T06:03:11;94206.84;;;29.76;50.37
10462;BME280;5278;42.656;23.374;2022-08-23T06:05:39;94207.72;;;30.07;48.70
10462;BME280;5278;42.656;23.374;2022-08-23T06:08:07;94206.09;;;30.28;48.14
10462;BME280;5278;42.656;23.374;2022-08-23T06:10:35;94194.66;;;30.45;47.58
10462;BME280;5278;42.656;23.374;2022-08-23T06:13:04;94202.63;;;30.59;47.35
10462;BME280;5278;42.656;23.374;2022-08-23T06:15:31;94201.78;;;30.89;46.27
10462;BME280;5278;42.656;23.374;2022-08-23T06:17:58;94213.44;;;31.33;44.66
10462;BME280;5278;42.656;23.374;2022-08-23T06:20:25;94219.50;;;31.73;43.75
10462;BME280;5278;42.656;23.374;2022-08-23T06:22:52;94222.47;;;32.23;42.46
10462;BME280;5278;42.656;23.374;2022-08-23T06:25:18;94221.75;;;32.52;41.11
10462;BME280;5278;42.656;23.374;2022-08-23T06:27:45;94225.53;;;32.68;41.15
10462;BME280;5278;42.656;23.374;2022-08-23T06:30:14;94217.53;;;33.09;40.03
10462;BME280;5278;42.656;23.374;2022-08-23T06:32:41;94219.59;;;33.42;39.22
10462;BME280;5278;42.656;23.374;2022-08-23T06:35:08;94219.88;;;33.69;38.94
10462;BME280;5278;42.656;23.374;2022-08-23T06:37:35;94223.75;;;34.01;37.42
10462;BME280;5278;42.656;23.374;2022-08-23T06:40:04;94223.97;;;34.29;36.96
10462;BME280;5278;42.656;23.374;2022-08-23T06:42:31;94229.63;;;34.48;36.08
10462;BME280;5278;42.656;23.374;2022-08-23T06:44:58;94236.13;;;34.68;35.47
10462;BME280;5278;42.656;23.374;2022-08-23T06:47:26;94232.41;;;34.73;35.72
10462;BME280;5278;42.656;23.374;2022-08-23T06:49:53;94241.53;;;34.68;35.61
10462;BME280;5278;42.656;23.374;2022-08-23T06:52:21;94237.25;;;34.79;35.08
10462;BME280;5278;42.656;23.374;2022-08-23T06:54:48;94237.50;;;34.98;35.03
10462;BME280;5278;42.656;23.374;2022-08-23T06:57:15;94241.34;;;35.10;34.59
10462;BME280;5278;42.656;23.374;2022-08-23T06:59:41;94238.06;;;35.28;33.65
10462;BME280;5278;42.656;23.374;2022-08-23T07:02:11;94244.03;;;35.10;34.43
10462;BME280;5278;42.656;23.374;2022-08-23T07:04:40;94241.75;;;34.87;34.73
10462;BME280;5278;42.656;23.374;2022-08-23T07:07:08;94242.03;;;35.31;34.30
10462;BME280;5278;42.656;23.374;2022-08-23T07:09:35;94234.13;;;35.50;34.08
10462;BME280;5278;42.656;23.374;2022-08-23T07:12:03;94241.41;;;36.02;32.64
10462;BME280;5278;42.656;23.374;2022-08-23T07:14:32;94244.41;;;36.24;32.87
10462;BME280;5278;42.656;23.374;2022-08-23T07:17:00;94250.19;;;36.66;31.84
10462;BME280;5278;42.656;23.374;2022-08-23T07:19:29;94223.47;;;37.12;31.12
10462;BME280;5278;42.656;23.374;2022-08-23T07:21:59;94229.63;;;37.44;30.77
10462;BME280;5278;42.656;23.374;2022-08-23T07:24:27;94209.00;;;37.74;30.43
10462;BME280;5278;42.656;23.374;2022-08-23T07:26:55;94231.56;;;38.36;29.69
10462;BME280;5278;42.656;23.374;2022-08-23T07:29:22;94224.69;;;38.42;29.68
10462;BME280;5278;42.656;23.374;2022-08-23T07:31:51;94222.69;;;38.39;29.51
10462;BME280;5278;42.656;23.374;2022-08-23T07:34:19;94223.88;;;38.19;29.87
10462;BME280;5278;42.656;23.374;2022-08-23T07:36:48;94229.13;;;38.31;29.39
10462;BME280;5278;42.656;23.374;2022-08-23T07:39:17;94240.94;;;37.81;30.56
10462;BME280;5278;42.656;23.374;2022-08-23T07:41:44;94252.66;;;37.03;31.05
10462;BME280;5278;42.656;23.374;2022-08-23T07:44:12;94241.16;;;36.19;32.62
10462;BME280;5278;42.656;23.374;2022-08-23T07:46:41;94247.31;;;35.39;33.82
10462;BME280;5278;42.656;23.374;2022-08-23T07:49:09;94248.78;;;34.55;35.34
10462;BME280;5278;42.656;23.374;2022-08-23T07:51:38;94244.19;;;34.02;36.75
10462;BME280;5278;42.656;23.374;2022-08-23T07:54:07;94252.19;;;33.49;37.38
10462;BME280;5278;42.656;23.374;2022-08-23T07:56:36;94252.06;;;32.86;38.41
10462;BME280;5278;42.656;23.374;2022-08-23T07:59:04;94256.44;;;32.44;39.53
10462;BME280;5278;42.656;23.374;2022-08-23T08:01:31;94264.84;;;32.00;41.28
10462;BME280;5278;42.656;23.374;2022-08-23T08:04:00;94271.97;;;31.70;41.94
10462;BME280;5278;42.656;23.374;2022-08-23T08:06:29;94259.41;;;31.31;42.71
10462;BME280;5278;42.656;23.374;2022-08-23T08:08:57;94250.88;;;30.90;43.07
10462;BME280;5278;42.656;23.374;2022-08-23T08:11:26;94269.50;;;30.86;44.20
10462;BME280;5278;42.656;23.374;2022-08-23T08:13:55;94281.63;;;30.75;44.79
10462;BME280;5278;42.656;23.374;2022-08-23T08:16:24;94265.63;;;30.61;45.04
10462;BME280;5278;42.656;23.374;2022-08-23T08:18:54;94279.00;;;30.53;45.15
10462;BME280;5278;42.656;23.374;2022-08-23T08:21:22;94279.78;;;30.53;45.11
10462;BME280;5278;42.656;23.374;2022-08-23T08:23:49;94287.84;;;30.53;44.89
10462;BME280;5278;42.656;23.374;2022-08-23T08:26:17;94278.59;;;30.46;44.45
10462;BME280;5278;42.656;23.374;2022-08-23T08:28:44;94278.66;;;30.54;44.54
10462;BME280;5278;42.656;23.374;2022-08-23T08:31:13;94277.59;;;30.64;44.31
10462;BME280;5278;42.656;23.374;2022-08-23T08:33:41;94266.25;;;30.58;43.94
10462;BME280;5278;42.656;23.374;2022-08-23T08:36:27;94282.28;;;30.81;44.12
10462;BME280;5278;42.656;23.374;2022-08-23T08:38:54;94286.34;;;31.09;43.74
10462;BME280;5278;42.656;23.374;2022-08-23T08:41:27;94278.06;;;31.45;43.24
10462;BME280;5278;42.656;23.374;2022-08-23T08:44:06;94283.03;;;31.69;42.89
10462;BME280;5278;42.656;23.374;2022-08-23T08:46:41;94247.94;;;31.56;42.07
10462;BME280;5278;42.656;23.374;2022-08-23T08:49:13;94275.47;;;31.71;41.94
10462;BME280;5278;42.656;23.374;2022-08-23T08:51:45;94274.66;;;31.61;42.39
10462;BME280;5278;42.656;23.374;2022-08-23T08:54:18;94277.56;;;31.34;42.40
10462;BME280;5278;42.656;23.374;2022-08-23T08:56:49;94262.81;;;31.06;43.04
10462;BME280;5278;42.656;23.374;2022-08-23T08:59:20;94265.22;;;31.16;44.19
10462;BME280;5278;42.656;23.374;2022-08-23T09:01:49;94251.00;;;31.24;44.03
10462;BME280;5278;42.656;23.374;2022-08-23T09:04:17;94252.00;;;31.28;43.69
10462;BME280;5278;42.656;23.374;2022-08-23T09:07:02;94249.00;;;31.38;44.03
10462;BME280;5278;42.656;23.374;2022-08-23T09:09:51;94214.72;;;31.52;42.91
10462;BME280;5278;42.656;23.374;2022-08-23T09:12:28;94231.19;;;31.85;42.78
10462;BME280;5278;42.656;23.374;2022-08-23T09:15:15;94235.59;;;31.90;42.19
10462;BME280;5278;42.656;23.374;2022-08-23T09:17:52;94244.31;;;32.13;41.28
10462;BME280;5278;42.656;23.374;2022-08-23T09:20:21;94239.69;;;32.30;40.28
10462;BME280;5278;42.656;23.374;2022-08-23T09:22:51;94238.25;;;32.41;40.17
10462;BME280;5278;42.656;23.374;2022-08-23T09:25:22;94236.97;;;32.94;39.18
10462;BME280;5278;42.656;23.374;2022-08-23T09:27:50;94224.81;;;33.88;37.43
10462;BME280;5278;42.656;23.374;2022-08-23T09:30:18;94241.66;;;35.97;34.04
10462;BME280;5278;42.656;23.374;2022-08-23T09:32:47;94239.97;;;37.07;32.65
10462;BME280;5278;42.656;23.374;2022-08-23T09:35:18;94233.97;;;37.64;30.82
10462;BME280;5278;42.656;23.374;2022-08-23T09:37:49;94235.00;;;39.21;28.90
10462;BME280;5278;42.656;23.374;2022-08-23T09:40:19;94224.97;;;40.74;27.48
10462;BME280;5278;42.656;23.374;2022-08-23T09:43:04;94226.66;;;41.40;26.13
10462;BME280;5278;42.656;23.374;2022-08-23T09:45:34;94236.09;;;41.46;25.88
10462;BME280;5278;42.656;23.374;2022-08-23T09:48:04;94224.59;;;41.19;25.74
10462;BME280;5278;42.656;23.374;2022-08-23T09:50:35;94216.28;;;40.28;26.45
10462;BME280;5278;42.656;23.374;2022-08-23T09:53:07;94245.63;;;39.78;27.39
10462;BME280;5278;42.656;23.374;2022-08-23T09:55:36;94245.59;;;39.52;27.42
10462;BME280;5278;42.656;23.374;2022-08-23T09:58:06;94243.72;;;40.12;26.59
10462;BME280;5278;42.656;23.374;2022-08-23T10:00:42;94228.84;;;40.73;26.25
10462;BME280;5278;42.656;23.374;2022-08-23T10:03:21;94227.31;;;41.78;24.95
10462;BME280;5278;42.656;23.374;2022-08-23T10:05:52;94226.56;;;42.74;23.85
10462;BME280;5278;42.656;23.374;2022-08-23T10:08:25;94232.81;;;43.46;22.93
10462;BME280;5278;42.656;23.374;2022-08-23T10:10:56;94227.28;;;43.74;22.50
10462;BME280;5278;42.656;23.374;2022-08-23T10:13:24;94229.69;;;43.51;22.79
10462;BME280;5278;42.656;23.374;2022-08-23T10:16:01;94227.72;;;42.98;23.53
10462;BME280;5278;42.656;23.374;2022-08-23T10:18:42;94231.09;;;42.31;23.68
10462;BME280;5278;42.656;23.374;2022-08-23T10:21:20;94235.03;;;42.34;24.03
10462;BME280;5278;42.656;23.374;2022-08-23T10:23:55;94231.66;;;43.04;23.52
10462;BME280;5278;42.656;23.374;2022-08-23T10:26:31;94217.53;;;43.73;22.36
10462;BME280;5278;42.656;23.374;2022-08-23T10:29:03;94209.56;;;44.14;21.94
10462;BME280;5278;42.656;23.374;2022-08-23T10:32:12;94224.44;;;44.16;22.05
10462;BME280;5278;42.656;23.374;2022-08-23T10:34:54;94221.09;;;43.56;22.63
10462;BME280;5278;42.656;23.374;2022-08-23T10:37:37;94202.31;;;43.58;22.64
10462;BME280;5278;42.656;23.374;2022-08-23T10:40:14;94205.28;;;44.13;22.25
10462;BME280;5278;42.656;23.374;2022-08-23T10:42:51;94206.88;;;44.03;21.85
10462;BME280;5278;42.656;23.374;2022-08-23T10:45:24;94201.75;;;44.09;21.65
10462;BME280;5278;42.656;23.374;2022-08-23T10:48:05;94203.25;;;44.21;21.68
10462;BME280;5278;42.656;23.374;2022-08-23T10:50:43;94203.34;;;44.03;21.76
10462;BME280;5278;42.656;23.374;2022-08-23T10:53:14;94205.78;;;43.72;21.97
10462;BME280;5278;42.656;23.374;2022-08-23T10:55:45;94185.53;;;43.24;22.62
10462;BME280;5278;42.656;23.374;2022-08-23T10:58:33;94198.28;;;42.28;23.67
10462;BME280;5278;42.656;23.374;2022-08-23T11:01:04;94206.81;;;41.43;24.91
10462;BME280;5278;42.656;23.374;2022-08-23T11:03:34;94209.16;;;40.94;25.22
10462;BME280;5278;42.656;23.374;2022-08-23T11:09:29;94212.09;;;39.22;26.55
10462;BME280;5278;42.656;23.374;2022-08-23T11:12:11;94210.19;;;38.34;28.21
10462;BME280;5278;42.656;23.374;2022-08-23T11:14:41;94209.28;;;37.69;29.22
10462;BME280;5278;42.656;23.374;2022-08-23T11:17:21;94210.78;;;37.51;29.67
10462;BME280;5278;42.656;23.374;2022-08-23T11:19:52;94207.81;;;36.90;29.68
10462;BME280;5278;42.656;23.374;2022-08-23T11:22:21;94203.94;;;36.59;33.01
10462;BME280;5278;42.656;23.374;2022-08-23T11:24:53;94203.22;;;36.47;32.17
10462;BME280;5278;42.656;23.374;2022-08-23T11:27:30;94208.00;;;36.65;32.12
10462;BME280;5278;42.656;23.374;2022-08-23T11:32:59;94180.59;;;37.02;31.12
10462;BME280;5278;42.656;23.374;2022-08-23T11:35:34;94179.66;;;37.10;30.66
10462;BME280;5278;42.656;23.374;2022-08-23T11:38:04;94194.53;;;37.51;30.92
10462;BME280;5278;42.656;23.374;2022-08-23T11:41:12;94192.91;;;37.66;31.33
10462;BME280;5278;42.656;23.374;2022-08-23T11:43:43;94195.53;;;37.81;30.84
10462;BME280;5278;42.656;23.374;2022-08-23T11:46:31;94187.06;;;37.83;29.63
10462;BME280;5278;42.656;23.374;2022-08-23T11:49:35;94181.84;;;37.74;29.92
10462;BME280;5278;42.656;23.374;2022-08-23T11:52:21;94180.56;;;37.68;29.97
10462;BME280;5278;42.656;23.374;2022-08-23T11:55:12;94189.34;;;37.81;29.15
10462;BME280;5278;42.656;23.374;2022-08-23T11:57:53;94188.00;;;37.90;29.90
10462;BME280;5278;42.656;23.374;2022-08-23T12:00:24;94193.28;;;37.83;29.93
10462;BME280;5278;42.656;23.374;2022-08-23T12:02:56;94186.53;;;37.58;29.99
10462;BME280;5278;42.656;23.374;2022-08-23T12:05:41;94188.91;;;37.25;30.40
10462;BME280;5278;42.656;23.374;2022-08-23T12:08:52;94190.06;;;37.08;31.47
10462;BME280;5278;42.656;23.374;2022-08-23T12:11:21;94183.06;;;36.91;30.99
10462;BME280;5278;42.656;23.374;2022-08-23T12:13:56;94183.28;;;36.39;31.99
10462;BME280;5278;42.656;23.374;2022-08-23T12:16:32;94171.78;;;35.59;31.69
10462;BME280;5278;42.656;23.374;2022-08-23T12:19:04;94203.06;;;34.95;33.65
10462;BME280;5278;42.656;23.374;2022-08-23T12:21:39;94196.75;;;34.22;34.76
10462;BME280;5278;42.656;23.374;2022-08-23T12:24:20;94190.03;;;33.75;36.87
10462;BME280;5278;42.656;23.374;2022-08-23T12:27:09;94192.13;;;33.27;36.22
10462;BME280;5278;42.656;23.374;2022-08-23T12:29:47;94191.53;;;32.84;37.31
10462;BME280;5278;42.656;23.374;2022-08-23T12:32:23;94191.56;;;32.37;38.98
10462;BME280;5278;42.656;23.374;2022-08-23T12:34:59;94190.53;;;31.87;39.12
10462;BME280;5278;42.656;23.374;2022-08-23T12:37:34;94189.28;;;31.67;40.17
10462;BME280;5278;42.656;23.374;2022-08-23T12:40:07;94183.59;;;31.60;40.09
10462;BME280;5278;42.656;23.374;2022-08-23T12:42:37;94185.63;;;31.54;40.47
10462;BME280;5278;42.656;23.374;2022-08-23T12:45:10;94178.66;;;31.36;40.78
10462;BME280;5278;42.656;23.374;2022-08-23T12:47:38;94187.66;;;31.14;40.56
10462;BME280;5278;42.656;23.374;2022-08-23T12:50:17;94186.38;;;31.12;41.02
10462;BME280;5278;42.656;23.374;2022-08-23T12:52:55;94181.31;;;31.10;41.07
10462;BME280;5278;42.656;23.374;2022-08-23T12:55:30;94187.41;;;30.94;41.23
10462;BME280;5278;42.656;23.374;2022-08-23T12:57:57;94174.78;;;30.86;41.31
10462;BME280;5278;42.656;23.374;2022-08-23T13:00:27;94184.03;;;30.71;41.92
10462;BME280;5278;42.656;23.374;2022-08-23T13:02:58;94182.28;;;30.66;42.21
10462;BME280;5278;42.656;23.374;2022-08-23T13:05:36;94173.25;;;30.54;43.06
10462;BME280;5278;42.656;23.374;2022-08-23T13:08:07;94175.88;;;30.45;43.67
10462;BME280;5278;42.656;23.374;2022-08-23T13:10:38;94174.75;;;30.38;43.41
10462;BME280;5278;42.656;23.374;2022-08-23T13:13:09;94172.38;;;30.36;44.62
10462;BME280;5278;42.656;23.374;2022-08-23T13:15:49;94158.94;;;30.27;44.63
10462;BME280;5278;42.656;23.374;2022-08-23T13:18:28;94153.31;;;30.07;44.93
10462;BME280;5278;42.656;23.374;2022-08-23T13:21:24;94174.78;;;30.15;45.38
10462;BME280;5278;42.656;23.374;2022-08-23T13:23:53;94163.25;;;30.15;45.15
10462;BME280;5278;42.656;23.374;2022-08-23T13:26:35;94157.69;;;30.03;46.11